Terminal Aerodrome Forecast
Issued by NWS

Home | Current Version | Previous Version | Text Only | Print | Product List | Glossary On
Versions: 1 2 3 4 5 6 7 8 9 10 11 12
000
FTUS42 TJSJ 211739
TAFJBQ
TAF
TJBQ 211739Z 2118/2218 06012KT P6SM FEW025 SCT040
     FM212300 10005KT P6SM FEW030 SCT080
     FM220300 00000KT P6SM SKC
     FM221450 07012KT P6SM SCT025 SCT050=

USA.gov is the U.S. government's official web portal to all federal, state and local government web resources and services.